Time;durP1;ratioP1;P1;durP2;ratioP2;P2;SDS_P1;SDS_P2;PMS_P1;PMS_P2;Temp;Humidity;BMP_temperature;BMP_pressure;BME280_temperature;BME280_humidity;BME280_pressure;Samples;Min_cycle;Max_cycle;Signal;HPM_P1;HPM_P2
2023/02/21 02:15:18;;;;;;;0.10;0.10;;;;;;;14.53;100.00;100098.19;7388651;19;20014;-59
2023/02/21 02:17:56;;;;;;;0.10;0.10;;;;;;;15.14;100.00;100095.81;7389021;19;20470;-59
2023/02/21 02:20:53;;;;;;;0.10;0.10;;;;;;;14.53;100.00;100101.00;7389049;19;20458;-59
2023/02/21 02:23:59;;;;;;;0.30;0.10;;;;;;;14.17;100.00;100101.66;7391394;19;20028;-59
2023/02/21 02:26:46;;;;;;;0.10;0.10;;;;;;;14.23;100.00;100094.84;7387886;19;20007;-59
2023/02/21 02:29:43;;;;;;;0.20;0.20;;;;;;;14.46;100.00;100084.66;7388266;19;20017;-59
2023/02/21 02:32:28;;;;;;;0.10;0.10;;;;;;;14.68;100.00;100082.03;7390874;19;20011;-59
2023/02/21 02:35:07;;;;;;;0.10;0.10;;;;;;;14.48;100.00;100082.13;7389490;19;20015;-59
2023/02/21 02:37:54;;;;;;;0.10;0.00;;;;;;;14.64;100.00;100092.69;7390428;19;20010;-59
2023/02/21 02:40:32;;;;;;;0.10;0.10;;;;;;;14.39;100.00;100079.47;7387920;19;20024;-59
2023/02/21 02:43:15;;;;;;;0.13;0.10;;;;;;;14.32;100.00;100077.13;7391935;19;20018;-59
2023/02/21 02:46:06;;;;;;;0.20;0.20;;;;;;;14.79;100.00;100072.94;7391369;19;20011;-59
2023/02/21 02:48:37;;;;;;;0.60;0.20;;;;;;;14.54;100.00;100070.94;7386332;19;20089;-59
2023/02/21 02:51:09;;;;;;;0.10;0.10;;;;;;;15.15;100.00;100067.28;7389199;19;20033;-59
2023/02/21 02:53:36;;;;;;;0.43;0.20;;;;;;;14.85;100.00;100079.34;7391275;19;20031;-59
2023/02/21 02:56:05;;;;;;;0.10;0.10;;;;;;;14.57;100.00;100067.94;7393156;19;20485;-59
2023/02/21 02:58:48;;;;;;;0.10;0.10;;;;;;;14.40;100.00;100069.81;7389643;19;20003;-59
2023/02/21 03:01:23;;;;;;;0.13;0.13;;;;;;;14.10;100.00;100068.47;7387373;19;20024;-59
2023/02/21 03:04:27;;;;;;;0.20;0.20;;;;;;;14.51;100.00;100064.28;7386789;19;20026;-59
2023/02/21 03:07:15;;;;;;;0.10;0.10;;;;;;;14.55;100.00;100067.66;7387575;19;20010;-59
2023/02/21 03:10:11;;;;;;;0.10;0.00;;;;;;;14.79;100.00;100059.66;7386416;19;20021;-59
2023/02/21 03:12:49;;;;;;;0.17;0.17;;;;;;;15.08;100.00;100062.16;7387198;19;20118;-59
2023/02/21 03:15:21;;;;;;;0.10;0.10;;;;;;;14.46;100.00;100061.47;7387525;19;20078;-59
2023/02/21 03:18:03;;;;;;;0.82;0.30;;;;;;;15.18;100.00;100068.34;7391982;19;20018;-59
2023/02/21 03:20:32;;;;;;;0.10;0.10;;;;;;;15.44;100.00;100057.00;7386585;19;20382;-59
2023/02/21 03:23:01;;;;;;;0.10;0.10;;;;;;;15.02;100.00;100058.56;7391863;19;20022;-59
2023/02/21 03:25:32;;;;;;;0.10;0.03;;;;;;;15.39;100.00;100052.09;7385845;19;20014;-59
2023/02/21 03:28:02;;;;;;;0.10;0.10;;;;;;;15.68;100.00;100058.09;7386887;19;20010;-59
2023/02/21 03:30:34;;;;;;;0.10;0.00;;;;;;;15.30;100.00;100058.69;7387246;19;20062;-59
2023/02/21 03:33:02;;;;;;;0.10;0.10;;;;;;;14.35;100.00;100051.69;7389437;19;20078;-59
2023/02/21 03:35:29;;;;;;;0.10;0.10;;;;;;;14.04;100.00;100059.25;7392939;19;20014;-59
2023/02/21 03:37:57;;;;;;;0.10;0.10;;;;;;;14.47;100.00;100057.41;7393117;19;20015;-59
2023/02/21 03:40:30;;;;;;;0.10;0.10;;;;;;;14.66;100.00;100053.69;7393328;19;20024;-59
2023/02/21 03:43:00;;;;;;;0.10;0.10;;;;;;;15.23;100.00;100049.97;7396008;19;20011;-59
2023/02/21 03:45:29;;;;;;;0.10;0.10;;;;;;;14.41;100.00;100049.72;7395636;19;20007;-59
2023/02/21 03:48:05;;;;;;;0.10;0.10;;;;;;;14.73;100.00;100053.25;7393609;19;20010;-59
2023/02/21 03:50:33;;;;;;;0.10;0.10;;;;;;;14.49;100.00;100044.41;7394068;19;20010;-59
2023/02/21 03:52:59;;;;;;;0.10;0.10;;;;;;;14.37;100.00;100054.00;7397787;19;20010;-59
2023/02/21 03:55:26;;;;;;;1.08;0.20;;;;;;;14.21;100.00;100040.56;7393871;19;20501;-59
2023/02/21 03:57:53;;;;;;;0.10;0.10;;;;;;;14.14;100.00;100046.66;7393551;19;20006;-59
2023/02/21 04:00:20;;;;;;;0.10;0.10;;;;;;;14.39;100.00;100045.88;7392821;19;20078;-59
2023/02/21 04:02:50;;;;;;;0.10;0.10;;;;;;;14.68;100.00;100045.59;7396403;19;20025;-59
2023/02/21 04:05:39;;;;;;;0.10;0.10;;;;;;;14.61;100.00;100043.25;7394695;19;20014;-59
2023/02/21 04:08:09;;;;;;;0.10;0.10;;;;;;;13.85;100.00;100049.66;7393214;19;20372;-59
2023/02/21 04:10:35;;;;;;;0.10;0.10;;;;;;;14.25;100.00;100043.94;7394690;19;20011;-59
2023/02/21 04:13:02;;;;;;;0.10;0.10;;;;;;;14.20;100.00;100044.66;7395699;19;20508;-58
2023/02/21 04:15:32;;;;;;;0.10;0.10;;;;;;;14.09;100.00;100036.16;7393509;19;20056;-58
2023/02/21 04:17:58;;;;;;;0.20;0.10;;;;;;;14.04;100.00;100036.84;7389885;19;20502;-59
2023/02/21 04:20:25;;;;;;;0.10;0.10;;;;;;;13.93;100.00;100037.53;7390960;19;20021;-59
2023/02/21 04:22:55;;;;;;;0.10;0.10;;;;;;;14.59;100.00;100030.97;7395937;19;20032;-59
2023/02/21 04:25:21;;;;;;;0.20;0.20;;;;;;;14.71;100.00;100024.94;7392181;19;20014;-59
2023/02/21 04:27:51;;;;;;;0.10;0.10;;;;;;;14.15;100.00;100026.53;7393129;19;20013;-59
2023/02/21 04:30:18;;;;;;;0.10;0.10;;;;;;;13.99;100.00;100026.38;7395057;19;20113;-59
2023/02/21 04:32:44;;;;;;;0.10;0.10;;;;;;;14.08;100.00;100015.00;7395260;19;20014;-59
2023/02/21 04:35:13;;;;;;;0.15;0.15;;;;;;;14.06;100.00;100017.53;7393270;19;20010;-59
2023/02/21 04:37:43;;;;;;;0.10;0.10;;;;;;;13.98;100.00;100022.03;7392524;19;20010;-59
2023/02/21 04:40:11;;;;;;;0.20;0.20;;;;;;;13.76;100.00;100027.41;7392404;19;20049;-59
2023/02/21 04:42:37;;;;;;;0.10;0.10;;;;;;;13.92;100.00;100027.59;7393089;19;20070;-59
2023/02/21 04:45:03;;;;;;;0.10;0.00;;;;;;;13.86;100.00;100026.00;7394685;19;20011;-59
2023/02/21 04:47:30;;;;;;;0.10;0.10;;;;;;;14.00;100.00;100016.72;7391840;19;20025;-59
2023/02/21 04:49:56;;;;;;;0.10;0.10;;;;;;;13.92;100.00;100019.19;7392225;19;20487;-59
2023/02/21 04:52:22;;;;;;;0.10;0.10;;;;;;;13.91;100.00;100014.06;7395383;19;20018;-59
2023/02/21 04:54:48;;;;;;;0.10;0.10;;;;;;;13.91;100.00;100022.47;7393884;19;20037;-59
2023/02/21 04:57:15;;;;;;;0.52;0.20;;;;;;;13.87;100.00;100024.72;7393346;19;20010;-59
2023/02/21 04:59:41;;;;;;;0.10;0.10;;;;;;;14.17;100.00;100018.41;7392845;19;20350;-59
2023/02/21 05:02:08;;;;;;;0.10;0.10;;;;;;;13.94;100.00;100013.09;7393067;19;20026;-59
2023/02/21 05:04:35;;;;;;;0.10;0.10;;;;;;;13.92;100.00;100008.00;7393316;19;20010;-59
2023/02/21 05:07:03;;;;;;;0.10;0.10;;;;;;;14.10;100.00;100012.47;7392950;19;20010;-59
2023/02/21 05:09:29;;;;;;;0.10;0.10;;;;;;;14.21;100.00;100009.75;7392346;19;20473;-59
2023/02/21 05:11:55;;;;;;;0.10;0.10;;;;;;;14.16;100.00;100016.84;7394286;19;20037;-59
2023/02/21 05:14:21;;;;;;;0.10;0.10;;;;;;;14.24;100.00;100012.34;7392370;19;20465;-59
2023/02/21 05:16:47;;;;;;;0.10;0.10;;;;;;;14.31;100.00;100016.78;7394860;19;20098;-59
2023/02/21 05:19:26;;;;;;;0.63;0.20;;;;;;;14.27;100.00;100008.53;7392046;19;20011;-59
2023/02/21 05:21:56;;;;;;;0.10;0.10;;;;;;;14.43;100.00;100009.97;7392984;19;20014;-59
2023/02/21 05:24:27;;;;;;;0.10;0.10;;;;;;;14.38;100.00;100000.25;7390461;19;20019;-59
2023/02/21 05:26:54;;;;;;;;;;;;;;;14.50;100.00;100003.16;7390514;19;20010;-60
2023/02/21 05:29:20;;;;;;;0.10;0.10;;;;;;;15.00;100.00;100005.00;7390475;19;20426;-59
2023/02/21 05:31:47;;;;;;;0.10;0.10;;;;;;;14.96;100.00;100003.69;7393490;19;20010;-59
2023/02/21 05:34:14;;;;;;;0.10;0.10;;;;;;;14.94;100.00;99998.56;7391820;19;20019;-59
2023/02/21 05:36:41;;;;;;;0.10;0.10;;;;;;;15.15;100.00;99994.34;7390928;19;20015;-59
2023/02/21 05:39:08;;;;;;;0.20;0.20;;;;;;;15.11;100.00;99991.03;7391712;19;20030;-59
2023/02/21 05:41:34;;;;;;;0.10;0.00;;;;;;;14.86;100.00;99999.53;7391772;19;20459;-59
2023/02/21 05:44:02;;;;;;;0.10;0.10;;;;;;;15.31;100.00;99994.94;7390030;19;20033;-59
2023/02/21 05:46:31;;;;;;;1.27;0.28;;;;;;;14.82;100.00;99994.19;7391948;19;20032;-59
2023/02/21 05:48:59;;;;;;;0.10;0.10;;;;;;;14.96;100.00;100000.88;7391180;19;20015;-59
2023/02/21 05:51:26;;;;;;;0.10;0.10;;;;;;;14.53;100.00;99997.28;7393998;19;20041;-58
2023/02/21 05:53:53;;;;;;;0.10;0.10;;;;;;;14.61;100.00;99998.38;7392501;19;20010;-58
2023/02/21 05:56:20;;;;;;;0.10;0.10;;;;;;;15.08;100.00;99994.81;7391953;19;20018;-58
2023/02/21 05:58:46;;;;;;;0.10;0.10;;;;;;;15.22;100.00;99993.09;7392312;19;20398;-58
2023/02/21 06:01:12;;;;;;;0.10;0.10;;;;;;;14.98;100.00;99996.31;7391643;19;20462;-58
2023/02/21 06:03:38;;;;;;;0.38;0.13;;;;;;;13.69;100.00;100004.19;7392216;19;20082;-58
2023/02/21 06:06:05;;;;;;;0.10;0.10;;;;;;;12.82;100.00;99997.00;7392567;19;20406;-59
2023/02/21 06:08:31;;;;;;;0.10;0.10;;;;;;;13.03;100.00;99995.00;7393267;19;20339;-58
2023/02/21 06:10:57;;;;;;;0.85;0.20;;;;;;;12.96;100.00;99989.84;7392847;19;20018;-59
2023/02/21 06:13:23;;;;;;;0.17;0.17;;;;;;;14.84;100.00;99986.03;7395889;19;20014;-58
2023/02/21 06:15:49;;;;;;;0.10;0.00;;;;;;;12.76;100.00;99982.19;7393633;19;20018;-58
2023/02/21 06:18:16;;;;;;;0.38;0.13;;;;;;;12.63;100.00;99986.56;7392496;19;20539;-58
2023/02/21 06:20:43;;;;;;;0.10;0.10;;;;;;;12.24;100.00;99986.00;7391654;19;20106;-58
2023/02/21 06:23:09;;;;;;;0.55;0.10;;;;;;;12.31;100.00;99973.66;7394744;19;20010;-58
2023/02/21 06:25:35;;;;;;;0.25;0.10;;;;;;;12.34;100.00;99975.50;7390444;19;20018;-58
2023/02/21 06:28:01;;;;;;;0.10;0.10;;;;;;;13.12;100.00;99980.16;7391362;19;20757;-58
2023/02/21 06:30:27;;;;;;;0.40;0.40;;;;;;;13.40;100.00;99979.22;7390669;19;20021;-58
2023/02/21 06:32:54;;;;;;;0.30;0.30;;;;;;;13.26;100.00;99977.28;7393168;19;20027;-58
2023/02/21 06:35:20;;;;;;;0.20;0.10;;;;;;;12.88;100.00;99971.94;7390077;19;20376;-58
2023/02/21 06:37:46;;;;;;;0.10;0.10;;;;;;;12.43;100.00;99978.16;7389907;19;20558;-58
2023/02/21 06:40:12;;;;;;;0.17;0.17;;;;;;;12.25;100.00;99983.97;7389911;19;20015;-58
2023/02/21 06:42:38;;;;;;;0.10;0.10;;;;;;;11.68;100.00;99978.69;7390405;19;20015;-58
2023/02/21 06:45:05;;;;;;;0.20;0.20;;;;;;;11.17;100.00;99981.00;7391289;19;20018;-58
2023/02/21 06:47:31;;;;;;;0.20;0.20;;;;;;;11.01;100.00;99973.06;7394513;19;20021;-59
2023/02/21 06:49:57;;;;;;;1.30;0.45;;;;;;;11.03;100.00;99976.13;7388952;19;20010;-59
2023/02/21 06:52:23;;;;;;;1.85;0.98;;;;;;;11.17;100.00;99972.63;7392175;19;20025;-59
2023/02/21 06:54:50;;;;;;;0.20;0.20;;;;;;;10.85;100.00;99973.50;7389700;19;20040;-59
2023/02/21 06:57:16;;;;;;;0.15;0.15;;;;;;;10.65;100.00;99974.81;7389588;19;20015;-59
2023/02/21 06:59:42;;;;;;;0.10;0.10;;;;;;;10.57;100.00;99970.84;7388061;19;20014;-59
2023/02/21 07:02:17;;;;;;;0.20;0.20;;;;;;;11.23;100.00;99970.72;7389909;19;20018;-59
2023/02/21 07:04:45;;;;;;;0.15;0.15;;;;;;;10.76;100.00;99968.75;7389476;19;20101;-59
2023/02/21 07:07:12;;;;;;;0.30;0.10;;;;;;;10.97;100.00;99964.09;7389967;19;20022;-59
2023/02/21 07:09:38;;;;;;;0.30;0.30;;;;;;;10.96;100.00;99962.59;7395623;19;20010;-58
2023/02/21 07:12:04;;;;;;;0.20;0.20;;;;;;;11.72;100.00;99968.13;7397755;19;20427;-59
2023/02/21 07:14:30;;;;;;;0.28;0.28;;;;;;;11.05;100.00;99962.50;7396664;19;20406;-59
2023/02/21 07:16:56;;;;;;;0.88;0.60;;;;;;;11.33;100.00;99966.59;7399271;19;20037;-59
2023/02/21 07:19:22;;;;;;;1.92;0.60;;;;;;;11.23;100.00;99959.56;7397688;19;20027;-59
2023/02/21 07:21:49;;;;;;;0.30;0.30;;;;;;;11.36;100.00;99962.88;7395944;19;20371;-59
2023/02/21 07:24:15;;;;;;;0.30;0.30;;;;;;;11.50;100.00;99966.94;7399164;19;20014;-59
2023/02/21 07:26:41;;;;;;;0.30;0.20;;;;;;;11.21;100.00;99965.63;7399300;19;20109;-57
2023/02/21 07:29:07;;;;;;;0.20;0.20;;;;;;;11.56;100.00;99962.22;7398373;19;20027;-58
2023/02/21 07:31:33;;;;;;;1.10;0.95;;;;;;;11.94;100.00;99962.94;7398389;19;20459;-58
2023/02/21 07:34:00;;;;;;;0.30;0.30;;;;;;;11.73;100.00;99969.66;7398615;19;20014;-58
2023/02/21 07:36:26;;;;;;;0.10;0.10;;;;;;;12.00;100.00;99963.78;7399406;19;20328;-58
2023/02/21 07:38:52;;;;;;;0.10;0.10;;;;;;;11.25;100.00;99962.66;7398096;19;20074;-57
2023/02/21 07:41:18;;;;;;;0.65;0.57;;;;;;;12.00;100.00;99960.22;7396212;19;20014;-57
2023/02/21 07:43:44;;;;;;;0.20;0.20;;;;;;;11.88;100.00;99956.50;7398961;19;20037;-58
2023/02/21 07:46:12;;;;;;;0.20;0.20;;;;;;;11.46;100.00;99967.09;7396905;19;20018;-58
2023/02/21 07:48:38;;;;;;;3.60;0.68;;;;;;;11.42;100.00;99958.16;7398256;19;20011;-58
2023/02/21 07:51:09;;;;;;;0.73;0.22;;;;;;;11.83;100.00;99954.38;7398121;19;20102;-58
2023/02/21 07:53:35;;;;;;;0.70;0.57;;;;;;;12.05;100.00;99956.75;7395990;19;20089;-57
2023/02/21 07:56:02;;;;;;;0.40;0.40;;;;;;;11.44;100.00;99958.44;7397828;19;20021;-58
2023/02/21 07:58:28;;;;;;;0.90;0.40;;;;;;;11.43;100.00;99959.72;7397995;19;20066;-58
2023/02/21 08:00:54;;;;;;;0.40;0.40;;;;;;;10.92;100.00;99961.97;7395841;19;20037;-58
2023/02/21 08:03:22;;;;;;;0.40;0.40;;;;;;;11.69;100.00;99963.53;7396790;19;20042;-58
2023/02/21 08:05:48;;;;;;;0.35;0.35;;;;;;;11.87;100.00;99968.88;7397316;19;20451;-58
2023/02/21 08:08:15;;;;;;;0.15;0.15;;;;;;;12.79;100.00;99963.69;7394494;19;20014;-58
2023/02/21 08:10:42;;;;;;;0.98;0.75;;;;;;;12.96;100.00;99973.06;7394626;19;20047;-58
2023/02/21 08:13:08;;;;;;;0.35;0.35;;;;;;;12.95;100.00;99971.50;7398376;19;20022;-58
2023/02/21 08:15:34;;;;;;;0.60;0.43;;;;;;;13.67;100.00;99964.75;7394726;19;20037;-58
2023/02/21 08:18:00;;;;;;;1.70;0.65;;;;;;;12.48;100.00;99966.28;7393430;19;20019;-58
2023/02/21 08:20:27;;;;;;;0.70;0.70;;;;;;;12.73;100.00;99960.06;7392377;19;20012;-58
2023/02/21 08:22:53;;;;;;;0.95;0.80;;;;;;;12.79;100.00;99960.91;7397516;19;20021;-58
2023/02/21 08:25:19;;;;;;;1.33;0.38;;;;;;;13.78;100.00;99964.06;7394895;19;20010;-58
2023/02/21 08:27:47;;;;;;;2.85;0.90;;;;;;;13.23;100.00;99969.84;7394657;19;20021;-58
2023/02/21 08:30:15;;;;;;;5.38;0.88;;;;;;;12.90;100.00;99963.84;7392503;19;20010;-58
2023/02/21 08:32:42;;;;;;;0.20;0.20;;;;;;;13.88;100.00;99959.84;7396044;19;20074;-58
2023/02/21 08:35:13;;;;;;;0.10;0.10;;;;;;;13.52;100.00;99958.50;7395167;19;20012;-58
2023/02/21 08:37:44;;;;;;;0.85;0.55;;;;;;;13.34;100.00;99958.78;7396924;19;20007;-58
2023/02/21 08:40:11;;;;;;;0.28;0.28;;;;;;;13.80;100.00;99960.78;7395569;19;20015;-58
2023/02/21 08:42:37;;;;;;;0.30;0.20;;;;;;;13.72;100.00;99954.09;7395344;19;20031;-58
2023/02/21 08:45:04;;;;;;;0.17;0.17;;;;;;;13.89;100.00;99957.81;7396469;19;20090;-58
2023/02/21 08:47:33;;;;;;;0.47;0.45;;;;;;;14.06;100.00;99961.50;7397979;19;20055;-58
2023/02/21 08:50:00;;;;;;;2.20;0.40;;;;;;;14.12;100.00;99970.75;7391995;19;20018;-58
2023/02/21 08:52:26;;;;;;;0.45;0.15;;;;;;;14.86;100.00;99960.28;7395808;19;20010;-58
2023/02/21 08:54:52;;;;;;;4.40;0.40;;;;;;;14.72;100.00;99962.03;7393701;19;20125;-58
2023/02/21 08:57:19;;;;;;;0.30;0.30;;;;;;;15.65;100.00;99962.91;7397222;19;20027;-58
2023/02/21 08:59:45;;;;;;;0.20;0.10;;;;;;;16.61;100.00;99968.81;7397261;19;20455;-58
2023/02/21 09:02:20;;;;;;;1.48;1.02;;;;;;;16.80;100.00;99972.59;7393559;19;20461;-58
2023/02/21 09:04:47;;;;;;;4.60;0.43;;;;;;;16.32;100.00;99970.09;7393533;19;20003;-58
2023/02/21 09:07:16;;;;;;;0.25;0.25;;;;;;;15.72;100.00;99968.00;7392682;19;20025;-57
2023/02/21 09:09:42;;;;;;;0.10;0.10;;;;;;;17.06;100.00;99969.44;7391924;19;20023;-57
2023/02/21 09:12:08;;;;;;;0.10;0.10;;;;;;;18.97;100.00;99960.56;7394590;19;20010;-58
2023/02/21 09:14:36;;;;;;;0.35;0.35;;;;;;;17.66;100.00;99964.78;7393057;19;20015;-58
2023/02/21 09:17:04;;;;;;;1.13;0.10;;;;;;;18.68;100.00;99962.16;7395842;19;20102;-58
2023/02/21 09:19:31;;;;;;;2.92;0.20;;;;;;;18.32;100.00;99958.63;7391725;19;20051;-58
2023/02/21 09:21:57;;;;;;;2.15;0.28;;;;;;;16.84;100.00;99956.19;7392400;19;20043;-58
2023/02/21 09:24:24;;;;;;;2.38;0.20;;;;;;;21.92;83.25;99954.91;7392117;19;20466;-58
2023/02/21 09:27:02;;;;;;;10.98;0.93;;;;;;;16.93;100.00;99966.41;7391282;19;20031;-58
2023/02/21 09:29:30;;;;;;;0.22;0.22;;;;;;;20.44;100.00;99963.84;7391640;19;20018;-58
2023/02/21 09:31:56;;;;;;;1.83;0.30;;;;;;;16.18;100.00;99965.47;7393252;19;20018;-58
2023/02/21 09:34:23;;;;;;;7.00;1.40;;;;;;;17.02;100.00;99963.31;7393069;19;20015;-58
2023/02/21 09:36:53;;;;;;;3.20;0.65;;;;;;;16.77;100.00;99956.72;7392111;19;20463;-58
2023/02/21 09:39:21;;;;;;;4.13;0.52;;;;;;;16.29;100.00;99968.28;7391714;19;20023;-58
2023/02/21 09:41:48;;;;;;;0.52;0.38;;;;;;;16.33;100.00;99960.34;7391365;19;20478;-58
2023/02/21 09:44:21;;;;;;;1.33;0.90;;;;;;;16.50;100.00;99958.31;7391914;19;20003;-58
2023/02/21 09:46:51;;;;;;;0.63;0.45;;;;;;;16.59;100.00;99955.22;7391922;19;20481;-59
2023/02/21 09:49:27;;;;;;;0.95;0.10;;;;;;;17.34;100.00;99956.00;7390351;19;20019;-58
2023/02/21 09:51:55;;;;;;;1.45;0.85;;;;;;;23.56;78.40;99939.59;7393342;19;20011;-59
2023/02/21 09:54:39;;;;;;;0.68;0.32;;;;;;;29.68;52.69;99929.03;7391019;19;20342;-58
2023/02/21 09:57:12;;;;;;;3.10;0.63;;;;;;;31.61;44.25;99938.81;7391761;19;20576;-58
2023/02/21 09:59:39;;;;;;;0.35;0.30;;;;;;;23.59;55.40;99941.28;7391143;19;20015;-58
2023/02/21 10:02:14;;;;;;;0.25;0.10;;;;;;;19.95;69.27;99951.25;7391110;19;20366;-58
2023/02/21 10:05:16;;;;;;;0.25;0.25;;;;;;;23.26;56.49;99950.78;7394453;19;20011;-58
2023/02/21 10:07:42;;;;;;;3.42;0.73;;;;;;;27.69;49.67;99937.34;7389336;19;20496;-58
2023/02/21 10:10:20;;;;;;;0.20;0.13;;;;;;;17.83;79.57;99957.75;7390155;19;20389;-58
2023/02/21 10:12:58;;;;;;;0.10;0.10;;;;;;;15.03;100.00;99956.28;7394052;19;20033;-58
2023/02/21 10:15:54;;;;;;;1.65;0.40;;;;;;;24.50;74.54;99930.78;7391875;19;20024;-58
2023/02/21 10:18:28;;;;;;;0.60;0.38;;;;;;;29.56;50.08;99930.25;7391070;19;20491;-58
2023/02/21 10:20:58;;;;;;;0.10;0.00;;;;;;;25.31;49.90;99944.69;7390259;19;20047;-58
2023/02/21 10:23:28;;;;;;;0.73;0.20;;;;;;;30.78;42.55;99929.63;7390507;19;20014;-58
2023/02/21 10:26:02;;;;;;;0.10;0.10;;;;;;;32.00;39.44;99927.63;7389763;19;20537;-58
2023/02/21 10:28:29;;;;;;;0.40;0.40;;;;;;;32.46;37.64;99924.78;7390074;19;20006;-58
2023/02/21 10:30:58;;;;;;;0.30;0.30;;;;;;;18.46;69.09;99946.22;7390278;19;20006;-58
2023/02/21 10:33:25;;;;;;;0.30;0.30;;;;;;;16.63;94.76;99952.19;7390823;19;20112;-56
2023/02/21 10:35:53;;;;;;;3.03;0.20;;;;;;;16.03;100.00;99956.53;7390588;19;20834;-56
2023/02/21 10:38:24;;;;;;;1.60;0.82;;;;;;;15.86;100.00;99955.75;7390090;19;20042;-57
2023/02/21 10:40:57;;;;;;;0.50;0.32;;;;;;;15.72;100.00;99951.91;7390373;19;20038;-57
2023/02/21 10:43:30;;;;;;;5.43;0.43;;;;;;;15.71;100.00;99944.78;7392699;19;20014;-57
2023/02/21 10:46:18;;;;;;;4.18;1.13;;;;;;;15.96;100.00;99943.00;7393751;19;20662;-57
2023/02/21 10:48:47;;;;;;;7.32;1.98;;;;;;;15.67;100.00;99949.13;7389942;19;20011;-57
2023/02/21 10:51:31;;;;;;;3.72;1.63;;;;;;;16.28;100.00;99940.69;7389507;19;20013;-57
2023/02/21 10:54:20;;;;;;;21.15;4.00;;;;;;;16.16;100.00;99944.78;7390268;19;20018;-57
2023/02/21 10:56:52;;;;;;;4.95;1.13;;;;;;;16.21;100.00;99944.78;7389110;19;20070;-57
2023/02/21 10:59:33;;;;;;;4.80;1.40;;;;;;;16.72;100.00;99945.50;7390627;19;20023;-60
2023/02/21 11:02:01;;;;;;;22.80;4.23;;;;;;;17.01;100.00;99944.88;7390271;19;20028;-58
2023/02/21 11:04:34;;;;;;;2.50;1.38;;;;;;;17.00;100.00;99944.09;7387910;19;20010;-57
2023/02/21 11:07:04;;;;;;;6.68;2.80;;;;;;;16.59;100.00;99937.59;7389651;19;20007;-58
2023/02/21 11:09:36;;;;;;;10.70;2.55;;;;;;;17.20;100.00;99929.69;7392355;19;20312;-57
2023/02/21 11:12:06;;;;;;;8.55;2.10;;;;;;;16.74;100.00;99937.31;7390282;19;20557;-57
2023/02/21 11:14:33;;;;;;;2.47;0.95;;;;;;;16.11;100.00;99942.75;7390371;19;20461;-57
2023/02/21 11:17:06;;;;;;;2.60;1.08;;;;;;;16.16;100.00;99931.50;7391209;19;20017;-57
2023/02/21 11:19:53;;;;;;;17.45;2.28;;;;;;;16.11;100.00;99932.28;7389228;19;20066;-57
2023/02/21 11:22:37;;;;;;;1.65;1.23;;;;;;;16.02;100.00;99931.78;7389995;19;20011;-58
2023/02/21 11:25:37;;;;;;;13.88;2.22;;;;;;;16.39;100.00;99921.78;7391093;19;20007;-57
2023/02/21 11:28:19;;;;;;;12.60;1.75;;;;;;;16.47;100.00;99919.97;7391633;19;20010;-58
2023/02/21 11:31:12;;;;;;;5.18;1.50;;;;;;;16.58;100.00;99911.53;7391705;19;20015;-57
2023/02/21 11:33:41;;;;;;;6.97;1.45;;;;;;;16.43;100.00;99913.84;7389112;19;20070;-57
2023/02/21 11:36:16;;;;;;;3.80;0.88;;;;;;;17.29;100.00;99909.69;7389668;19;20384;-57
2023/02/21 11:38:58;;;;;;;7.28;1.77;;;;;;;18.11;97.70;99904.75;7389243;19;20006;-57
2023/02/21 11:41:36;;;;;;;5.10;1.17;;;;;;;18.51;94.14;99896.69;7388867;19;20014;-57
2023/02/21 11:44:33;;;;;;;3.72;0.88;;;;;;;19.04;90.12;99895.78;7388445;19;20043;-58
2023/02/21 11:47:03;;;;;;;5.00;1.58;;;;;;;18.44;91.22;99894.44;7391431;19;20014;-58
2023/02/21 11:49:58;;;;;;;2.92;1.15;;;;;;;19.14;88.49;99896.97;7389508;19;20006;-58
2023/02/21 11:52:33;;;;;;;4.13;1.10;;;;;;;19.26;86.62;99881.38;7390793;19;20021;-58
2023/02/21 11:55:00;;;;;;;1.40;0.75;;;;;;;19.04;86.07;99878.84;7386842;19;20041;-58
2023/02/21 11:57:45;;;;;;;0.50;0.43;;;;;;;18.61;88.79;99878.13;7393680;19;20074;-58
2023/02/21 12:00:31;;;;;;;11.95;1.10;;;;;;;17.82;90.88;99882.97;7396274;19;20017;-57
2023/02/21 12:03:10;;;;;;;8.48;1.17;;;;;;;17.54;91.50;99874.00;7397048;19;20010;-58
2023/02/21 12:06:03;;;;;;;3.53;1.58;;;;;;;24.22;72.35;99853.38;7399092;19;20024;-59
2023/02/21 12:09:01;;;;;;;9.93;1.73;;;;;;;18.37;88.69;99864.78;7396005;19;20434;-58
2023/02/21 12:11:50;;;;;;;3.15;0.65;;;;;;;17.24;94.05;99867.50;7395441;19;20015;-58
2023/02/21 12:14:35;;;;;;;2.92;1.80;;;;;;;17.12;97.61;99860.41;7395291;19;20355;-58
2023/02/21 12:17:16;;;;;;;7.82;1.63;;;;;;;17.27;96.73;99860.84;7397797;19;20018;-58
2023/02/21 12:19:54;;;;;;;5.97;0.60;;;;;;;17.64;97.51;99849.84;7394630;19;20344;-58
2023/02/21 12:22:43;;;;;;;8.27;2.25;;;;;;;18.35;91.23;99846.84;7395199;19;20011;-58
2023/02/21 12:25:28;;;;;;;4.45;0.95;;;;;;;17.27;94.51;99843.94;7395116;19;20014;-58
2023/02/21 12:28:23;;;;;;;0.10;0.10;;;;;;;17.92;92.56;99830.63;7394984;19;20029;-59
2023/02/21 12:31:12;;;;;;;1.85;1.08;;;;;;;17.40;94.92;99830.81;7394405;19;20033;-59
2023/02/21 12:33:51;;;;;;;1.63;0.30;;;;;;;18.07;91.53;99819.72;7395698;19;20010;-59
2023/02/21 12:36:36;;;;;;;3.38;1.75;;;;;;;19.88;84.59;99819.06;7395834;19;20017;-59
2023/02/21 12:39:16;;;;;;;5.13;1.00;;;;;;;17.35;90.78;99811.88;7393543;19;20014;-59
2023/02/21 12:42:08;;;;;;;4.40;1.23;;;;;;;17.92;89.07;99796.81;7391618;19;20018;-59
2023/02/21 12:45:15;;;;;;;1.63;0.57;;;;;;;18.58;84.84;99800.22;7394511;19;20035;-60
2023/02/21 12:47:58;;;;;;;1.98;0.65;;;;;;;18.15;87.81;99789.66;7393527;19;20017;-59
2023/02/21 12:50:37;;;;;;;2.53;0.60;;;;;;;18.07;89.19;99793.59;7397953;19;20091;-59
2023/02/21 12:53:32;;;;;;;0.77;0.30;;;;;;;18.63;85.56;99790.91;7398233;19;20454;-59
2023/02/21 12:56:22;;;;;;;1.95;0.60;;;;;;;18.28;87.40;99782.63;7394534;19;20021;-59
2023/02/21 12:58:58;;;;;;;1.48;0.52;;;;;;;18.02;88.58;99785.94;7391414;19;20014;-59
2023/02/21 13:01:30;;;;;;;1.33;0.60;;;;;;;17.87;89.91;99777.91;7390875;19;20015;-59
2023/02/21 13:04:15;;;;;;;0.20;0.20;;;;;;;18.70;85.55;99773.38;7391811;19;20364;-59
2023/02/21 13:06:46;;;;;;;0.50;0.30;;;;;;;17.63;91.18;99772.25;7389690;19;20011;-59
2023/02/21 13:09:33;;;;;;;2.17;0.85;;;;;;;20.31;76.84;99769.38;7395375;19;20032;-59
2023/02/21 13:12:08;;;;;;;0.70;0.70;;;;;;;21.39;75.52;99764.44;7391633;19;20006;-58
2023/02/21 13:14:40;;;;;;;0.50;0.30;;;;;;;18.74;82.60;99765.38;7392004;19;20070;-58
2023/02/21 13:17:11;;;;;;;0.17;0.17;;;;;;;18.09;87.49;99760.00;7397106;19;20350;-57
2023/02/21 13:19:49;;;;;;;1.00;0.40;;;;;;;18.42;85.47;99753.19;7395677;19;20014;-57
2023/02/21 13:26:35;;;;;;;0.82;0.65;;;;;;;20.20;79.91;99741.34;7391993;19;20019;-58
2023/02/21 13:29:01;;;;;;;0.63;0.30;;;;;;;23.35;72.24;99718.00;7394440;19;20002;-58
2023/02/21 13:31:37;;;;;;;0.28;0.28;;;;;;;20.92;72.30;99730.53;7391795;19;20018;-58
2023/02/21 13:34:11;;;;;;;0.32;0.32;;;;;;;21.94;68.56;99733.91;7392447;19;20066;-58
2023/02/21 13:36:37;;;;;;;0.85;0.50;;;;;;;21.74;66.88;99729.78;7391500;19;20006;-58
2023/02/21 13:39:12;;;;;;;0.75;0.20;;;;;;;23.77;66.19;99718.34;7392972;19;20367;-57
2023/02/21 13:41:52;;;;;;;7.13;0.60;;;;;;;20.33;70.01;99727.19;7391013;19;20014;-58
2023/02/21 13:44:41;;;;;;;1.27;0.38;;;;;;;19.57;73.37;99716.06;7392160;19;20070;-58
2023/02/21 13:47:17;;;;;;;0.40;0.32;;;;;;;20.38;71.29;99715.00;7393422;19;20018;-59
2023/02/21 13:49:49;;;;;;;1.85;0.30;;;;;;;20.83;68.05;99703.44;7394050;19;20074;-59
2023/02/21 13:52:18;;;;;;;1.38;1.15;;;;;;;20.67;68.90;99704.59;7393091;19;20010;-59
2023/02/21 13:55:19;;;;;;;0.75;0.28;;;;;;;20.41;68.97;99707.47;7391220;19;20015;-59
2023/02/21 13:57:56;;;;;;;1.50;0.52;;;;;;;24.42;61.16;99692.97;7391644;19;20033;-59
2023/02/21 14:00:28;;;;;;;0.47;0.30;;;;;;;25.33;56.87;99691.09;7390519;19;20010;-59
2023/02/21 14:03:08;;;;;;;0.85;0.70;;;;;;;27.76;47.46;99693.16;7392661;19;20017;-59
2023/02/21 14:05:43;;;;;;;1.48;0.20;;;;;;;29.17;44.96;99682.84;7389056;19;20070;-59
2023/02/21 14:08:18;;;;;;;0.10;0.10;;;;;;;21.73;51.70;99683.66;7391653;19;20459;-59